sensor_id;sensor_type;location;lat;lon;timestamp;P1;durP1;ratioP1;P2;durP2;ratioP2
1991;SDS011;997;48.448;8.924;2023-07-13T03:04:23;2.60;;;2.40;;
1991;SDS011;997;48.448;8.924;2023-07-13T03:06:49;3.87;;;2.17;;
1991;SDS011;997;48.448;8.924;2023-07-13T03:09:15;3.67;;;2.10;;
1991;SDS011;997;48.448;8.924;2023-07-13T03:11:40;3.77;;;2.30;;
1991;SDS011;997;48.448;8.924;2023-07-13T03:14:07;2.77;;;2.03;;
1991;SDS011;997;48.448;8.924;2023-07-13T03:16:33;5.13;;;2.20;;
1991;SDS011;997;48.448;8.924;2023-07-13T03:18:58;2.80;;;2.00;;
1991;SDS011;997;48.448;8.924;2023-07-13T03:21:24;2.23;;;2.00;;
1991;SDS011;997;48.448;8.924;2023-07-13T03:23:50;2.73;;;2.53;;
1991;SDS011;997;48.448;8.924;2023-07-13T03:26:17;2.43;;;2.23;;
1991;SDS011;997;48.448;8.924;2023-07-13T03:28:44;5.97;;;2.27;;
1991;SDS011;997;48.448;8.924;2023-07-13T03:31:15;3.30;;;2.40;;
1991;SDS011;997;48.448;8.924;2023-07-13T03:33:42;4.90;;;1.73;;
1991;SDS011;997;48.448;8.924;2023-07-13T03:36:12;2.53;;;1.67;;
1991;SDS011;997;48.448;8.924;2023-07-13T03:38:46;2.50;;;2.20;;
1991;SDS011;997;48.448;8.924;2023-07-13T03:41:14;1.63;;;1.53;;
1991;SDS011;997;48.448;8.924;2023-07-13T03:43:40;2.57;;;2.00;;
1991;SDS011;997;48.448;8.924;2023-07-13T03:46:06;2.78;;;1.70;;
1991;SDS011;997;48.448;8.924;2023-07-13T03:48:32;2.20;;;1.87;;
1991;SDS011;997;48.448;8.924;2023-07-13T03:50:57;5.27;;;4.03;;
1991;SDS011;997;48.448;8.924;2023-07-13T03:53:23;3.87;;;2.50;;
1991;SDS011;997;48.448;8.924;2023-07-13T03:55:49;2.30;;;2.10;;
1991;SDS011;997;48.448;8.924;2023-07-13T04:01:00;3.37;;;2.20;;
1991;SDS011;997;48.448;8.924;2023-07-13T04:03:27;2.90;;;2.60;;
1991;SDS011;997;48.448;8.924;2023-07-13T04:05:58;3.70;;;2.27;;
1991;SDS011;997;48.448;8.924;2023-07-13T04:08:28;4.67;;;2.20;;
1991;SDS011;997;48.448;8.924;2023-07-13T04:10:56;3.87;;;2.77;;
1991;SDS011;997;48.448;8.924;2023-07-13T04:13:23;3.43;;;2.20;;
1991;SDS011;997;48.448;8.924;2023-07-13T04:15:49;2.80;;;2.40;;
1991;SDS011;997;48.448;8.924;2023-07-13T04:18:16;2.47;;;2.27;;
1991;SDS011;997;48.448;8.924;2023-07-13T04:20:42;3.43;;;2.23;;
1991;SDS011;997;48.448;8.924;2023-07-13T04:23:07;5.23;;;2.50;;
1991;SDS011;997;48.448;8.924;2023-07-13T04:25:33;4.80;;;2.47;;
1991;SDS011;997;48.448;8.924;2023-07-13T04:27:59;5.33;;;2.40;;
1991;SDS011;997;48.448;8.924;2023-07-13T04:30:24;2.47;;;2.27;;
1991;SDS011;997;48.448;8.924;2023-07-13T04:32:51;6.60;;;2.60;;
1991;SDS011;997;48.448;8.924;2023-07-13T04:35:18;4.10;;;2.67;;
1991;SDS011;997;48.448;8.924;2023-07-13T04:37:46;2.50;;;1.90;;
1991;SDS011;997;48.448;8.924;2023-07-13T04:40:13;4.40;;;2.80;;
1991;SDS011;997;48.448;8.924;2023-07-13T04:42:39;3.40;;;2.27;;
1991;SDS011;997;48.448;8.924;2023-07-13T04:45:06;2.40;;;2.20;;
1991;SDS011;997;48.448;8.924;2023-07-13T04:47:32;5.30;;;2.57;;
1991;SDS011;997;48.448;8.924;2023-07-13T04:49:57;3.30;;;2.27;;
1991;SDS011;997;48.448;8.924;2023-07-13T04:52:23;2.87;;;2.03;;
1991;SDS011;997;48.448;8.924;2023-07-13T04:54:49;3.20;;;1.93;;
1991;SDS011;997;48.448;8.924;2023-07-13T04:57:15;3.93;;;2.87;;
1991;SDS011;997;48.448;8.924;2023-07-13T04:59:41;3.13;;;2.80;;
1991;SDS011;997;48.448;8.924;2023-07-13T05:02:06;2.40;;;2.20;;
1991;SDS011;997;48.448;8.924;2023-07-13T05:04:32;2.90;;;2.60;;
1991;SDS011;997;48.448;8.924;2023-07-13T05:06:58;4.60;;;2.20;;
1991;SDS011;997;48.448;8.924;2023-07-13T05:09:24;3.23;;;1.90;;
1991;SDS011;997;48.448;8.924;2023-07-13T05:11:50;6.20;;;1.80;;
1991;SDS011;997;48.448;8.924;2023-07-13T05:14:16;2.57;;;2.37;;
1991;SDS011;997;48.448;8.924;2023-07-13T05:16:42;2.80;;;2.50;;
1991;SDS011;997;48.448;8.924;2023-07-13T05:19:07;2.37;;;2.17;;
1991;SDS011;997;48.448;8.924;2023-07-13T05:21:33;2.60;;;2.40;;
1991;SDS011;997;48.448;8.924;2023-07-13T05:23:59;3.70;;;2.83;;
1991;SDS011;997;48.448;8.924;2023-07-13T05:26:25;2.90;;;2.63;;
1991;SDS011;997;48.448;8.924;2023-07-13T05:28:50;5.03;;;3.37;;
1991;SDS011;997;48.448;8.924;2023-07-13T05:31:16;3.53;;;2.90;;
1991;SDS011;997;48.448;8.924;2023-07-13T05:33:42;3.60;;;2.73;;
1991;SDS011;997;48.448;8.924;2023-07-13T05:36:07;4.43;;;1.97;;
1991;SDS011;997;48.448;8.924;2023-07-13T05:38:33;2.93;;;2.73;;
1991;SDS011;997;48.448;8.924;2023-07-13T05:40:59;2.60;;;2.40;;
1991;SDS011;997;48.448;8.924;2023-07-13T05:43:25;3.47;;;2.70;;
1991;SDS011;997;48.448;8.924;2023-07-13T05:45:52;2.50;;;2.30;;
1991;SDS011;997;48.448;8.924;2023-07-13T05:48:19;2.57;;;2.37;;
1991;SDS011;997;48.448;8.924;2023-07-13T05:50:45;2.70;;;2.20;;
1991;SDS011;997;48.448;8.924;2023-07-13T05:53:11;2.70;;;2.50;;
1991;SDS011;997;48.448;8.924;2023-07-13T05:55:44;2.77;;;2.57;;
1991;SDS011;997;48.448;8.924;2023-07-13T05:58:12;3.90;;;3.33;;
1991;SDS011;997;48.448;8.924;2023-07-13T06:00:38;3.70;;;3.40;;
1991;SDS011;997;48.448;8.924;2023-07-13T06:03:05;3.83;;;2.70;;
1991;SDS011;997;48.448;8.924;2023-07-13T06:05:32;4.20;;;3.27;;
1991;SDS011;997;48.448;8.924;2023-07-13T06:07:58;3.73;;;2.53;;
1991;SDS011;997;48.448;8.924;2023-07-13T06:10:24;4.60;;;3.30;;
1991;SDS011;997;48.448;8.924;2023-07-13T06:12:50;4.00;;;3.07;;
1991;SDS011;997;48.448;8.924;2023-07-13T06:15:16;2.90;;;2.60;;
1991;SDS011;997;48.448;8.924;2023-07-13T06:17:42;2.53;;;2.33;;
1991;SDS011;997;48.448;8.924;2023-07-13T06:20:08;3.17;;;2.87;;
1991;SDS011;997;48.448;8.924;2023-07-13T06:22:34;2.90;;;2.53;;
1991;SDS011;997;48.448;8.924;2023-07-13T06:25:00;5.60;;;2.80;;
1991;SDS011;997;48.448;8.924;2023-07-13T06:27:26;3.20;;;2.90;;
1991;SDS011;997;48.448;8.924;2023-07-13T06:29:52;3.17;;;2.60;;
1991;SDS011;997;48.448;8.924;2023-07-13T06:32:17;3.37;;;2.20;;
1991;SDS011;997;48.448;8.924;2023-07-13T06:34:43;3.80;;;2.20;;
1991;SDS011;997;48.448;8.924;2023-07-13T06:37:09;2.60;;;2.30;;
1991;SDS011;997;48.448;8.924;2023-07-13T06:39:35;3.47;;;2.50;;
1991;SDS011;997;48.448;8.924;2023-07-13T06:42:00;3.77;;;2.23;;
1991;SDS011;997;48.448;8.924;2023-07-13T06:44:26;3.90;;;2.30;;
1991;SDS011;997;48.448;8.924;2023-07-13T06:46:52;3.20;;;2.60;;
1991;SDS011;997;48.448;8.924;2023-07-13T06:49:17;3.20;;;2.10;;
1991;SDS011;997;48.448;8.924;2023-07-13T06:51:43;4.83;;;2.93;;
1991;SDS011;997;48.448;8.924;2023-07-13T06:54:08;2.80;;;2.60;;
1991;SDS011;997;48.448;8.924;2023-07-13T06:56:34;3.00;;;1.93;;
1991;SDS011;997;48.448;8.924;2023-07-13T06:59:00;2.47;;;1.80;;
1991;SDS011;997;48.448;8.924;2023-07-13T07:01:25;2.30;;;2.10;;
1991;SDS011;997;48.448;8.924;2023-07-13T07:03:51;2.10;;;1.90;;
1991;SDS011;997;48.448;8.924;2023-07-13T07:06:18;4.43;;;2.07;;
1991;SDS011;997;48.448;8.924;2023-07-13T07:08:44;4.80;;;2.10;;
1991;SDS011;997;48.448;8.924;2023-07-13T07:11:16;5.00;;;2.33;;
1991;SDS011;997;48.448;8.924;2023-07-13T07:13:43;3.10;;;2.03;;
1991;SDS011;997;48.448;8.924;2023-07-13T07:16:09;1.80;;;1.70;;
1991;SDS011;997;48.448;8.924;2023-07-13T07:18:35;1.60;;;1.40;;
1991;SDS011;997;48.448;8.924;2023-07-13T07:21:01;1.87;;;1.67;;
1991;SDS011;997;48.448;8.924;2023-07-13T07:23:27;3.20;;;1.73;;
1991;SDS011;997;48.448;8.924;2023-07-13T07:25:53;1.80;;;1.70;;
1991;SDS011;997;48.448;8.924;2023-07-13T07:28:18;3.70;;;1.77;;
1991;SDS011;997;48.448;8.924;2023-07-13T07:30:45;4.27;;;2.23;;
1991;SDS011;997;48.448;8.924;2023-07-13T07:33:11;1.70;;;1.60;;
1991;SDS011;997;48.448;8.924;2023-07-13T07:35:37;2.07;;;1.83;;
1991;SDS011;997;48.448;8.924;2023-07-13T07:38:03;2.90;;;1.50;;
1991;SDS011;997;48.448;8.924;2023-07-13T07:40:29;2.50;;;1.70;;
1991;SDS011;997;48.448;8.924;2023-07-13T07:42:56;1.60;;;1.30;;
1991;SDS011;997;48.448;8.924;2023-07-13T07:45:21;1.47;;;1.37;;
1991;SDS011;997;48.448;8.924;2023-07-13T07:47:47;1.70;;;1.40;;
1991;SDS011;997;48.448;8.924;2023-07-13T07:50:13;1.37;;;1.27;;
1991;SDS011;997;48.448;8.924;2023-07-13T07:52:39;2.53;;;1.90;;
1991;SDS011;997;48.448;8.924;2023-07-13T07:55:05;3.13;;;1.60;;
1991;SDS011;997;48.448;8.924;2023-07-13T07:57:31;4.47;;;1.77;;
1991;SDS011;997;48.448;8.924;2023-07-13T07:59:57;2.70;;;1.70;;
1991;SDS011;997;48.448;8.924;2023-07-13T08:02:24;6.33;;;1.97;;
1991;SDS011;997;48.448;8.924;2023-07-13T08:04:50;1.60;;;1.50;;
1991;SDS011;997;48.448;8.924;2023-07-13T08:07:16;1.77;;;1.63;;
1991;SDS011;997;48.448;8.924;2023-07-13T08:09:42;4.40;;;2.10;;
1991;SDS011;997;48.448;8.924;2023-07-13T08:12:08;1.93;;;1.20;;
1991;SDS011;997;48.448;8.924;2023-07-13T08:14:33;3.13;;;1.40;;
1991;SDS011;997;48.448;8.924;2023-07-13T08:16:59;5.07;;;1.53;;
1991;SDS011;997;48.448;8.924;2023-07-13T08:19:25;1.83;;;1.40;;
1991;SDS011;997;48.448;8.924;2023-07-13T08:21:50;2.50;;;1.40;;
1991;SDS011;997;48.448;8.924;2023-07-13T08:24:16;3.83;;;1.97;;
1991;SDS011;997;48.448;8.924;2023-07-13T08:26:44;2.70;;;1.90;;
1991;SDS011;997;48.448;8.924;2023-07-13T08:29:11;2.10;;;1.43;;
1991;SDS011;997;48.448;8.924;2023-07-13T08:31:37;2.30;;;1.20;;
1991;SDS011;997;48.448;8.924;2023-07-13T08:34:02;3.27;;;1.50;;
1991;SDS011;997;48.448;8.924;2023-07-13T08:36:28;4.20;;;1.30;;
1991;SDS011;997;48.448;8.924;2023-07-13T08:38:54;3.20;;;2.00;;
1991;SDS011;997;48.448;8.924;2023-07-13T08:41:20;2.50;;;1.23;;
1991;SDS011;997;48.448;8.924;2023-07-13T08:43:47;2.13;;;1.73;;
1991;SDS011;997;48.448;8.924;2023-07-13T08:46:26;6.43;;;1.70;;
1991;SDS011;997;48.448;8.924;2023-07-13T08:49:02;5.53;;;1.67;;
1991;SDS011;997;48.448;8.924;2023-07-13T08:54:11;2.40;;;1.70;;
1991;SDS011;997;48.448;8.924;2023-07-13T08:56:37;2.73;;;1.43;;
1991;SDS011;997;48.448;8.924;2023-07-13T08:59:11;2.90;;;2.10;;
1991;SDS011;997;48.448;8.924;2023-07-13T09:04:25;2.40;;;1.50;;
1991;SDS011;997;48.448;8.924;2023-07-13T09:07:16;2.40;;;1.70;;
1991;SDS011;997;48.448;8.924;2023-07-13T09:15:31;3.10;;;1.40;;
1991;SDS011;997;48.448;8.924;2023-07-13T21:17:36;2.93;;;2.10;;
1991;SDS011;997;48.448;8.924;2023-07-13T21:20:12;2.20;;;1.60;;
1991;SDS011;997;48.448;8.924;2023-07-13T21:22:40;3.10;;;1.93;;
1991;SDS011;997;48.448;8.924;2023-07-13T21:25:12;7.10;;;2.13;;
1991;SDS011;997;48.448;8.924;2023-07-13T21:27:58;2.33;;;2.13;;
